Time;durP1;ratioP1;P1;durP2;ratioP2;P2;SDS_P1;SDS_P2;PMS_P1;PMS_P2;Temp;Humidity;BMP_temperature;BMP_pressure;BME280_temperature;BME280_humidity;BME280_pressure;Samples;Min_cycle;Max_cycle;Signal;HPM_P1;HPM_P2
2021/10/25 14:56:58;;;;;;;;;;;6.10;60.50;;;;;;5094077;27;20357;-96
2021/10/25 14:59:24;;;;;;;;;;;5.80;62.20;;;;;;5111158;28;19912;-96
2021/10/25 15:01:49;;;;;;;;;;;5.70;63.60;;;;;;5095213;28;19908;-96
2021/10/25 15:04:16;;;;;;;;;;;5.60;64.60;;;;;;5093193;28;19955;-95
2021/10/25 15:06:42;;;;;;;;;;;5.60;65.20;;;;;;5093682;28;19931;-96
2021/10/25 15:09:07;;;;;;;;;;;5.60;65.80;;;;;;5093344;28;19908;-96
2021/10/25 15:11:33;;;;;;;;;;;5.60;66.20;;;;;;5093675;28;19915;-96
2021/10/25 15:13:59;;;;;;;;;;;5.60;66.60;;;;;;5092510;28;19909;-96
2021/10/25 15:16:24;;;;;;;;;;;5.60;66.90;;;;;;5092188;28;19912;-96
2021/10/25 15:18:51;;;;;;;;;;;5.50;67.10;;;;;;5092780;28;19962;-96
2021/10/25 15:21:17;;;;;;;;;;;5.50;67.40;;;;;;5101518;28;20387;-96
2021/10/25 15:23:50;;;;;;;;;;;5.40;67.50;;;;;;5105488;28;19916;-95
2021/10/25 15:26:19;;;;;;;;;;;5.40;67.70;;;;;;5087682;28;19892;-96
2021/10/25 15:28:46;;;;;;;;;;;5.40;67.90;;;;;;5081806;28;19909;-96
2021/10/25 15:31:11;;;;;;;;;;;5.40;68.10;;;;;;5078039;28;20003;-96
2021/10/25 15:33:37;;;;;;;;;;;5.30;68.20;;;;;;5090937;28;19955;-96
2021/10/25 15:36:03;;;;;;;;;;;5.20;68.40;;;;;;5073709;28;20314;-94
2021/10/25 15:38:29;;;;;;;;;;;5.20;68.50;;;;;;5081057;28;19913;-94
2021/10/25 15:40:55;;;;;;;;;;;5.10;68.70;;;;;;5083870;28;20015;-89
2021/10/25 15:43:20;;;;;;;;;;;5.10;69.50;;;;;;5083320;28;19999;-89
2021/10/25 15:45:46;;;;;;;;;;;5.00;69.00;;;;;;5086381;28;19917;-90
2021/10/25 15:48:12;;;;;;;;;;;5.00;69.10;;;;;;5076496;28;19917;-90
2021/10/25 15:50:37;;;;;;;;;;;4.90;69.30;;;;;;5085143;28;19955;-94
2021/10/25 15:53:05;;;;;;;;;;;4.90;69.50;;;;;;5092375;28;20254;-95
2021/10/25 15:55:31;;;;;;;;;;;4.80;69.50;;;;;;5092013;28;20404;-95
2021/10/25 15:57:58;;;;;;;;;;;4.70;69.70;;;;;;5095829;28;19928;-96
2021/10/25 16:00:25;;;;;;;;;;;4.70;69.90;;;;;;5091083;28;19909;-94
2021/10/25 16:02:50;;;;;;;;;;;4.60;69.90;;;;;;5096929;28;20280;-92
2021/10/25 16:05:16;;;;;;;;;;;4.50;70.00;;;;;;5075576;28;19912;-94
2021/10/25 16:07:42;;;;;;;;;;;4.50;70.20;;;;;;5077525;28;19966;-92
2021/10/25 16:10:10;;;;;;;;;;;4.40;70.20;;;;;;5061778;28;20293;-92
2021/10/25 16:12:36;;;;;;;;;;;4.40;70.40;;;;;;5074594;28;19908;-96
2021/10/25 16:15:08;;;;;;;;;;;4.40;70.50;;;;;;5076623;28;19974;-96
2021/10/25 16:17:34;;;;;;;;;;;4.30;70.70;;;;;;5087436;22;19916;-96
2021/10/25 16:23:05;;;;;;;;;;;4.20;71.00;;;;;;5496257;22;19937;-95
2021/10/25 16:28:32;;;;;;;;;;;4.00;71.30;;;;;;5280997;23;19922;-96
2021/10/25 16:31:07;;;;;;;;;;;4.00;71.50;;;;;;5034713;23;19926;-96
2021/10/25 16:33:33;;;;;;;;;;;3.90;71.50;;;;;;4992674;28;19914;-96
2021/10/25 16:36:02;;;;;;;;;;;3.90;71.60;;;;;;4984765;28;19929;-96
2021/10/25 16:38:29;;;;;;;;;;;3.90;71.80;;;;;;4987216;28;20013;-95
2021/10/25 16:40:55;;;;;;;;;;;3.80;71.90;;;;;;4971522;28;20382;-95
2021/10/25 16:43:29;;;;;;;;;;;3.80;71.90;;;;;;4997489;28;19909;-96
2021/10/25 16:45:56;;;;;;;;;;;3.70;72.00;;;;;;4996922;28;19941;-96
2021/10/25 16:48:30;;;;;;;;;;;3.70;72.10;;;;;;4990132;28;19948;-95
2021/10/25 16:51:11;;;;;;;;;;;3.70;72.30;;;;;;4991765;28;19910;-96
2021/10/25 16:53:53;;;;;;;;;;;3.60;72.30;;;;;;5000145;28;19914;-94
2021/10/25 17:09:55;;;;;;;;;;;3.40;73.00;;;;;;4998281;28;19921;-93
2021/10/25 17:12:20;;;;;;;;;;;3.30;73.20;;;;;;4961796;28;19914;-96
2021/10/25 17:14:46;;;;;;;;;;;3.30;73.30;;;;;;4969597;28;19925;-95
2021/10/25 17:17:12;;;;;;;;;;;3.20;73.40;;;;;;4970995;28;19976;-91
2021/10/25 17:19:38;;;;;;;;;;;3.20;73.60;;;;;;4984414;28;19901;-96
2021/10/25 17:22:06;;;;;;;;;;;3.10;73.60;;;;;;4973880;28;19921;-90
2021/10/25 17:24:33;;;;;;;;;;;3.10;73.70;;;;;;4977615;28;19914;-96
2021/10/25 17:27:02;;;;;;;;;;;3.00;73.90;;;;;;4993094;28;19913;-95
2021/10/25 17:29:28;;;;;;;;;;;3.00;74.00;;;;;;4980913;28;19957;-95
2021/10/25 17:31:55;;;;;;;;;;;3.00;74.20;;;;;;4962654;28;19972;-89
2021/10/25 17:34:21;;;;;;;;;;;2.90;74.20;;;;;;4972096;28;20338;-96
2021/10/25 17:36:46;;;;;;;;;;;2.90;74.30;;;;;;4994324;28;19997;-96
2021/10/25 17:39:12;;;;;;;;;;;2.90;74.40;;;;;;4991345;28;19916;-96
2021/10/25 17:41:45;;;;;;;;;;;2.80;74.50;;;;;;4985112;28;19917;-95
2021/10/25 17:44:10;;;;;;;;;;;2.80;74.60;;;;;;4961361;28;19933;-94
2021/10/25 17:46:36;;;;;;;;;;;2.70;74.70;;;;;;4997785;28;19914;-94
2021/10/25 17:49:09;;;;;;;;;;;2.70;74.90;;;;;;4981255;28;19977;-96
2021/10/25 17:51:40;;;;;;;;;;;2.60;74.90;;;;;;4967441;28;19914;-95
2021/10/25 17:54:06;;;;;;;;;;;2.50;75.10;;;;;;4959035;28;19914;-90
2021/10/25 17:56:31;;;;;;;;;;;2.50;75.30;;;;;;4988633;28;19941;-89
2021/10/25 17:58:57;;;;;;;;;;;2.40;75.40;;;;;;4972643;28;19960;-89
2021/10/25 18:01:23;;;;;;;;;;;2.40;75.50;;;;;;4976395;28;19929;-88
2021/10/25 18:03:48;;;;;;;;;;;2.30;75.70;;;;;;4979002;28;20283;-89
2021/10/25 18:06:14;;;;;;;;;;;2.30;75.90;;;;;;4975072;28;20008;-89
2021/10/25 18:08:40;;;;;;;;;;;2.20;76.00;;;;;;4973925;28;19922;-90
2021/10/25 18:11:06;;;;;;;;;;;2.20;76.10;;;;;;4970854;28;20005;-89
2021/10/25 18:13:32;;;;;;;;;;;2.20;76.30;;;;;;4974463;28;20373;-87
2021/10/25 18:15:59;;;;;;;;;;;2.20;76.40;;;;;;4991752;28;19925;-89
2021/10/25 18:18:25;;;;;;;;;;;2.10;76.50;;;;;;4993123;28;20041;-88
2021/10/25 18:20:55;;;;;;;;;;;2.10;76.60;;;;;;4970319;28;20013;-88
2021/10/25 18:23:22;;;;;;;;;;;2.10;76.60;;;;;;4984914;28;19925;-88
2021/10/25 18:25:48;;;;;;;;;;;2.10;76.70;;;;;;4975709;28;19921;-87
2021/10/25 18:29:17;;;;;;;;;;;2.00;76.40;;;;;;5070772;28;20277;-89
2021/10/25 18:31:43;;;;;;;;;;;2.00;77.10;;;;;;5070353;28;20007;-87
2021/10/25 18:34:10;;;;;;;;;;;1.90;77.20;;;;;;5070630;28;19972;-88
2021/10/25 18:36:37;;;;;;;;;;;1.90;77.30;;;;;;5071059;28;19913;-88
2021/10/25 18:39:04;;;;;;;;;;;1.90;77.40;;;;;;5071218;28;19909;-88
2021/10/25 18:41:31;;;;;;;;;;;1.90;77.50;;;;;;5071363;28;19915;-88
2021/10/25 18:52:20;;;;;;;;;;;1.60;74.20;;;;;;5106001;27;19916;-88
2021/10/25 18:54:45;;;;;;;;;;;1.50;74.90;;;;;;5126178;27;20007;-89
2021/10/25 18:57:11;;;;;;;;;;;1.40;75.80;;;;;;5090481;28;19913;-88
